Time;durP1;ratioP1;P1;durP2;ratioP2;P2;SDS_P1;SDS_P2;PMS_P1;PMS_P2;Temp;Humidity;BMP_temperature;BMP_pressure;BME280_temperature;BME280_humidity;BME280_pressure;Samples;Min_cycle;Max_cycle;Signal;HPM_P1;HPM_P2
2023/10/16 00:01:29;;;;;;;0.55;0.55;;;;;;;;;;5007963;28;20049;-68
2023/10/16 00:03:56;;;;;;;0.65;0.45;;;;;;;;;;5003541;28;20050;-68
2023/10/16 00:06:25;;;;;;;0.00;0.00;;;;;;;;;;5004789;28;20061;-68
2023/10/16 00:09:00;;;;;;;1.25;0.43;;;;;;;;;;5004807;28;20054;-68
2023/10/16 00:11:28;;;;;;;0.13;0.13;;;;;;;;;;4987668;28;20046;-68
2023/10/16 00:13:57;;;;;;;2.30;0.22;;;;;;;;;;5006258;28;20145;-67
2023/10/16 00:16:28;;;;;;;0.00;0.00;;;;;;;;;;5007841;28;20049;-67
2023/10/16 00:18:57;;;;;;;0.00;0.00;;;;;;;;;;5006186;28;20061;-68
2023/10/16 00:21:25;;;;;;;0.10;0.10;;;;;;;;;;5005343;28;20552;-68
2023/10/16 00:23:54;;;;;;;0.30;0.30;;;;;;;;;;4989029;28;20076;-68
2023/10/16 00:26:23;;;;;;;0.10;0.10;;;;;;;;;;5002155;28;20198;-68
2023/10/16 00:29:17;;;;;;;0.22;0.22;;;;;;;;;;5003979;28;20100;-68
2023/10/16 00:31:52;;;;;;;0.40;0.40;;;;;;;;;;5000473;28;20404;-67
2023/10/16 00:34:20;;;;;;;0.20;0.20;;;;;;;;;;5004530;28;20518;-68
2023/10/16 00:36:53;;;;;;;1.35;0.32;;;;;;;;;;4981924;28;20056;-68
2023/10/16 00:39:22;;;;;;;0.28;0.28;;;;;;;;;;5006326;28;20060;-68
2023/10/16 00:41:50;;;;;;;0.20;0.20;;;;;;;;;;5002171;28;20152;-67
2023/10/16 00:44:18;;;;;;;0.38;0.38;;;;;;;;;;5000301;28;20496;-68
2023/10/16 00:46:48;;;;;;;0.32;0.32;;;;;;;;;;4986752;28;20511;-68
2023/10/16 00:49:18;;;;;;;0.10;0.10;;;;;;;;;;4990914;28;20073;-68
2023/10/16 00:51:47;;;;;;;0.45;0.43;;;;;;;;;;4987253;28;20041;-69
2023/10/16 00:54:23;;;;;;;0.20;0.20;;;;;;;;;;4997075;28;20053;-68
2023/10/16 00:56:51;;;;;;;0.10;0.10;;;;;;;;;;4985568;28;20058;-68
2023/10/16 00:59:23;;;;;;;0.20;0.20;;;;;;;;;;4989443;28;20202;-68
2023/10/16 01:02:33;;;;;;;;;;;;;;;;;;4990494;28;20053;-68
2023/10/16 01:04:42;;;;;;;0.50;0.45;;;;;;;;;;4980118;28;20355;-67
2023/10/16 01:07:15;;;;;;;0.10;0.10;;;;;;;;;;4985309;28;20059;-68
2023/10/16 01:09:46;;;;;;;0.20;0.20;;;;;;;;;;4984620;28;20037;-68
2023/10/16 01:12:16;;;;;;;0.47;0.47;;;;;;;;;;4985170;28;20054;-68
2023/10/16 01:14:45;;;;;;;0.10;0.10;;;;;;;;;;5005354;28;20049;-68
2023/10/16 01:17:12;;;;;;;3.13;2.92;;;;;;;;;;5006179;28;20411;-69
2023/10/16 01:19:43;;;;;;;0.30;0.30;;;;;;;;;;5002930;28;20137;-68
2023/10/16 01:22:13;;;;;;;1.20;1.20;;;;;;;;;;5005494;28;20069;-69
2023/10/16 01:24:45;;;;;;;0.10;0.10;;;;;;;;;;5002989;28;20050;-68
2023/10/16 01:27:26;;;;;;;0.10;0.10;;;;;;;;;;5006180;28;20448;-68
2023/10/16 01:29:54;;;;;;;;;;;;;;;;;;4990944;28;20045;-68
2023/10/16 01:32:22;;;;;;;0.10;0.10;;;;;;;;;;4987489;28;19937;-68
2023/10/16 01:34:50;;;;;;;0.32;0.32;;;;;;;;;;5005426;28;20042;-69
2023/10/16 01:37:18;;;;;;;0.20;0.20;;;;;;;;;;4983304;28;20044;-68
2023/10/16 01:39:49;;;;;;;0.47;0.47;;;;;;;;;;4985951;28;20045;-68
2023/10/16 01:42:18;;;;;;;;;;;;;;;;;;4999911;28;20054;-70
2023/10/16 01:44:48;;;;;;;0.10;0.10;;;;;;;;;;4981710;28;19931;-70
2023/10/16 01:47:15;;;;;;;0.10;0.10;;;;;;;;;;4973443;28;20197;-70
2023/10/16 01:49:44;;;;;;;1.20;0.80;;;;;;;;;;4984207;28;20123;-70
2023/10/16 01:52:14;;;;;;;0.15;0.15;;;;;;;;;;5003076;28;20050;-70
2023/10/16 01:54:47;;;;;;;0.20;0.20;;;;;;;;;;5003854;28;20052;-70
2023/10/16 01:57:16;;;;;;;0.50;0.50;;;;;;;;;;4983579;28;20041;-70
2023/10/16 01:59:45;;;;;;;0.25;0.25;;;;;;;;;;4986687;28;20455;-69
2023/10/16 02:02:13;;;;;;;0.20;0.20;;;;;;;;;;4982998;28;20049;-69
2023/10/16 02:04:42;;;;;;;0.35;0.22;;;;;;;;;;5006180;28;20065;-70
2023/10/16 02:07:11;;;;;;;0.10;0.10;;;;;;;;;;5004425;28;20038;-70
2023/10/16 02:09:39;;;;;;;0.47;0.47;;;;;;;;;;5006847;28;20049;-70
2023/10/16 02:12:14;;;;;;;0.30;0.30;;;;;;;;;;4986322;28;20045;-70
2023/10/16 02:14:42;;;;;;;0.10;0.10;;;;;;;;;;5002309;28;20129;-69
2023/10/16 02:17:19;;;;;;;0.43;0.43;;;;;;;;;;4986095;28;20041;-70
2023/10/16 02:19:48;;;;;;;0.13;0.13;;;;;;;;;;5003397;28;20145;-69
2023/10/16 02:22:16;;;;;;;0.77;0.52;;;;;;;;;;4976536;28;20034;-69
2023/10/16 02:24:48;;;;;;;0.20;0.20;;;;;;;;;;5003467;28;20544;-69
2023/10/16 02:27:18;;;;;;;0.45;0.45;;;;;;;;;;4999955;28;20052;-69
2023/10/16 02:29:49;;;;;;;0.10;0.10;;;;;;;;;;5005034;28;20092;-70
2023/10/16 02:32:17;;;;;;;0.20;0.20;;;;;;;;;;4983873;28;20554;-70
2023/10/16 02:34:44;;;;;;;0.55;0.52;;;;;;;;;;4986389;28;20058;-70
2023/10/16 02:37:14;;;;;;;0.50;0.50;;;;;;;;;;4988432;28;20420;-69
2023/10/16 02:39:50;;;;;;;0.30;0.30;;;;;;;;;;4988505;28;20045;-70
2023/10/16 02:42:19;;;;;;;0.30;0.30;;;;;;;;;;5003532;28;20041;-70
2023/10/16 02:44:47;;;;;;;0.20;0.20;;;;;;;;;;5001387;28;20052;-70
2023/10/16 02:47:25;;;;;;;0.55;0.55;;;;;;;;;;4988103;28;20136;-70
2023/10/16 02:49:56;;;;;;;0.80;0.77;;;;;;;;;;5004655;28;20064;-70
2023/10/16 02:52:24;;;;;;;0.00;0.00;;;;;;;;;;4987904;28;20077;-69
2023/10/16 02:54:56;;;;;;;0.30;0.17;;;;;;;;;;4986417;28;20057;-69
2023/10/16 02:57:26;;;;;;;0.30;0.30;;;;;;;;;;4998512;28;20100;-69
2023/10/16 02:59:54;;;;;;;0.30;0.30;;;;;;;;;;5005510;28;20065;-70
2023/10/16 03:02:27;;;;;;;0.10;0.10;;;;;;;;;;4987522;28;20388;-70
2023/10/16 03:05:09;;;;;;;0.40;0.40;;;;;;;;;;5005685;28;20397;-70
2023/10/16 03:07:39;;;;;;;0.57;0.57;;;;;;;;;;4993313;28;20064;-70
2023/10/16 03:10:08;;;;;;;0.30;0.30;;;;;;;;;;4990516;28;20042;-70
2023/10/16 03:12:36;;;;;;;0.15;0.15;;;;;;;;;;5000289;28;20057;-70
2023/10/16 03:15:15;;;;;;;0.60;0.60;;;;;;;;;;4988972;28;20515;-70
2023/10/16 03:17:42;;;;;;;1.15;1.15;;;;;;;;;;5002197;28;20468;-70
2023/10/16 03:23:07;;;;;;;3.20;0.52;;;;;;;;;;4967415;28;20529;-70
2023/10/16 03:28:11;;;;;;;1.13;1.13;;;;;;;;;;4983306;28;20495;-70
2023/10/16 03:30:42;;;;;;;0.70;0.70;;;;;;;;;;4982624;28;20063;-69
2023/10/16 03:33:14;;;;;;;1.02;0.60;;;;;;;;;;4993637;28;20050;-70
2023/10/16 03:35:44;;;;;;;0.35;0.35;;;;;;;;;;5007971;28;20519;-70
2023/10/16 03:38:12;;;;;;;0.30;0.30;;;;;;;;;;5005228;28;20455;-70
2023/10/16 03:40:41;;;;;;;0.32;0.30;;;;;;;;;;5001327;28;20054;-70
2023/10/16 03:43:09;;;;;;;0.55;0.47;;;;;;;;;;5005494;28;20056;-70
2023/10/16 03:45:40;;;;;;;0.10;0.10;;;;;;;;;;5005074;28;20096;-69
2023/10/16 03:48:10;;;;;;;0.20;0.20;;;;;;;;;;5004721;28;20053;-70
2023/10/16 03:50:42;;;;;;;0.70;0.68;;;;;;;;;;5005410;28;20052;-69
2023/10/16 03:53:13;;;;;;;0.57;0.57;;;;;;;;;;5007176;28;20424;-70
2023/10/16 03:55:48;;;;;;;0.68;0.68;;;;;;;;;;4987655;28;20048;-71
2023/10/16 03:58:16;;;;;;;0.75;0.75;;;;;;;;;;5004539;28;20053;-70
2023/10/16 04:00:53;;;;;;;9.65;8.98;;;;;;;;;;5002463;28;20042;-70
2023/10/16 04:03:21;;;;;;;0.22;0.22;;;;;;;;;;5005700;28;20049;-70
2023/10/16 04:05:50;;;;;;;1.92;0.52;;;;;;;;;;4999699;28;20053;-70
2023/10/16 04:08:25;;;;;;;0.10;0.10;;;;;;;;;;5005489;28;20057;-70
2023/10/16 04:10:53;;;;;;;0.20;0.20;;;;;;;;;;5005879;28;20049;-70
2023/10/16 04:13:27;;;;;;;0.30;0.30;;;;;;;;;;5004417;28;20064;-70
2023/10/16 04:18:32;;;;;;;0.50;0.47;;;;;;;;;;5005071;28;20451;-70
2023/10/16 04:31:55;;;;;;;0.88;0.88;;;;;;;;;;5000357;28;20485;-69
2023/10/16 04:50:27;;;;;;;0.00;0.00;;;;;;;;;;5000197;28;20096;-68
2023/10/16 04:53:14;;;;;;;0.10;0.10;;;;;;;;;;4999422;28;20049;-68
2023/10/16 04:55:53;;;;;;;0.10;0.10;;;;;;;;;;4995074;28;20100;-69
2023/10/16 05:07:16;;;;;;;0.10;0.10;;;;;;;;;;5003967;28;20064;-69
2023/10/16 06:15:51;;;;;;;0.13;0.13;;;;;;;;;;5007211;28;20057;-68
2023/10/16 06:18:19;;;;;;;0.30;0.30;;;;;;;;;;5007573;28;20054;-68
2023/10/16 06:20:46;;;;;;;0.35;0.35;;;;;;;;;;5007308;28;20148;-68
2023/10/16 06:23:14;;;;;;;0.20;0.20;;;;;;;;;;5007111;28;20045;-68
2023/10/16 06:25:47;;;;;;;0.35;0.35;;;;;;;;;;5006338;28;20420;-68
2023/10/16 06:28:15;;;;;;;1.35;1.23;;;;;;;;;;5007553;28;20062;-68
2023/10/16 06:30:43;;;;;;;2.95;2.38;;;;;;;;;;5005005;28;20046;-69
2023/10/16 06:33:14;;;;;;;0.30;0.30;;;;;;;;;;5006442;28;20053;-69
2023/10/16 06:35:42;;;;;;;0.40;0.40;;;;;;;;;;5004025;28;20061;-68
2023/10/16 06:38:14;;;;;;;0.80;0.65;;;;;;;;;;5007719;28;20413;-68
2023/10/16 06:40:42;;;;;;;1.45;1.25;;;;;;;;;;5006022;28;20049;-68
2023/10/16 06:43:09;;;;;;;0.10;0.10;;;;;;;;;;5006745;28;20050;-68
2023/10/16 06:45:55;;;;;;;0.10;0.10;;;;;;;;;;4987765;28;20069;-68
2023/10/16 06:48:22;;;;;;;0.20;0.20;;;;;;;;;;5005930;28;20046;-68
2023/10/16 06:53:23;;;;;;;2.50;2.13;;;;;;;;;;5005582;28;20064;-69
2023/10/16 06:55:51;;;;;;;0.50;0.50;;;;;;;;;;5005767;28;20527;-69
2023/10/16 06:58:21;;;;;;;2.63;1.92;;;;;;;;;;5007943;28;20063;-69
2023/10/16 07:00:49;;;;;;;0.52;0.52;;;;;;;;;;5006688;28;20049;-68
2023/10/16 07:03:17;;;;;;;1.55;1.15;;;;;;;;;;5005200;28;20072;-69
2023/10/16 07:05:45;;;;;;;0.22;0.22;;;;;;;;;;5006784;28;20042;-68
2023/10/16 07:08:17;;;;;;;1.83;1.73;;;;;;;;;;5011712;28;20123;-69
2023/10/16 07:10:49;;;;;;;1.60;1.50;;;;;;;;;;5009619;28;20042;-69
2023/10/16 07:13:26;;;;;;;0.52;0.52;;;;;;;;;;5008028;28;20049;-69
2023/10/16 07:16:02;;;;;;;0.25;0.25;;;;;;;;;;5010478;28;20068;-68
2023/10/16 07:18:35;;;;;;;0.85;0.82;;;;;;;;;;5011676;28;20049;-68
2023/10/16 07:23:34;;;;;;;0.50;0.50;;;;;;;;;;5011748;28;20523;-68
2023/10/16 07:26:03;;;;;;;0.30;0.30;;;;;;;;;;5009370;28;20588;-68
2023/10/16 07:28:31;;;;;;;0.40;0.40;;;;;;;;;;5010086;28;20053;-68
2023/10/16 07:30:59;;;;;;;0.22;0.22;;;;;;;;;;5011556;28;20046;-69
2023/10/16 07:33:27;;;;;;;0.60;0.60;;;;;;;;;;5008744;28;20064;-69
2023/10/16 07:35:56;;;;;;;0.85;0.85;;;;;;;;;;5011457;28;20056;-69
2023/10/16 07:38:25;;;;;;;0.40;0.40;;;;;;;;;;5010447;28;20404;-70
2023/10/16 07:40:54;;;;;;;0.95;0.95;;;;;;;;;;5011112;28;20064;-69
2023/10/16 07:43:26;;;;;;;0.20;0.20;;;;;;;;;;5009288;28;20508;-69
2023/10/16 07:48:37;;;;;;;0.00;0.00;;;;;;;;;;5008745;28;20130;-69
2023/10/16 07:51:07;;;;;;;0.10;0.10;;;;;;;;;;5010664;28;20038;-69
2023/10/16 07:53:35;;;;;;;0.40;0.40;;;;;;;;;;5007735;28;20381;-68
2023/10/16 07:56:03;;;;;;;0.50;0.50;;;;;;;;;;5009098;28;20058;-72
2023/10/16 07:58:33;;;;;;;0.10;0.10;;;;;;;;;;5009525;28;20053;-73
2023/10/16 08:03:41;;;;;;;0.40;0.40;;;;;;;;;;5008517;28;20057;-74
2023/10/16 08:06:12;;;;;;;2.38;1.05;;;;;;;;;;4992875;28;20150;-73
2023/10/16 08:08:40;;;;;;;0.17;0.17;;;;;;;;;;5007460;28;20136;-72
2023/10/16 08:11:13;;;;;;;0.50;0.50;;;;;;;;;;5008689;28;20049;-72
2023/10/16 08:13:48;;;;;;;0.43;0.43;;;;;;;;;;5006896;28;20057;-72
2023/10/16 08:16:21;;;;;;;0.40;0.40;;;;;;;;;;5008609;28;20054;-72
2023/10/16 08:18:57;;;;;;;0.70;0.70;;;;;;;;;;5008403;28;20132;-73
2023/10/16 08:21:24;;;;;;;0.13;0.13;;;;;;;;;;5009359;28;20539;-72
2023/10/16 08:23:53;;;;;;;0.20;0.20;;;;;;;;;;5008243;28;20828;-72
2023/10/16 08:26:29;;;;;;;0.40;0.40;;;;;;;;;;5009472;28;20042;-73
2023/10/16 08:29:11;;;;;;;0.10;0.10;;;;;;;;;;5010058;28;20050;-74
2023/10/16 08:31:43;;;;;;;0.10;0.10;;;;;;;;;;5009742;28;20424;-68
2023/10/16 08:34:13;;;;;;;0.57;0.57;;;;;;;;;;5007579;28;20061;-68
2023/10/16 08:36:41;;;;;;;0.10;0.10;;;;;;;;;;5006055;28;20408;-68
2023/10/16 08:39:09;;;;;;;1.27;0.73;;;;;;;;;;5008233;28;20041;-67
2023/10/16 08:41:45;;;;;;;0.30;0.30;;;;;;;;;;5008563;28;20298;-68
2023/10/16 08:44:17;;;;;;;1.15;0.30;;;;;;;;;;5003776;28;20400;-69
2023/10/16 08:46:53;;;;;;;0.43;0.43;;;;;;;;;;5001653;28;20042;-69
2023/10/16 08:49:22;;;;;;;0.17;0.17;;;;;;;;;;5003214;28;20053;-68
2023/10/16 08:51:52;;;;;;;0.50;0.50;;;;;;;;;;5004583;28;20500;-68
2023/10/16 08:57:22;;;;;;;0.05;0.05;;;;;;;;;;4944965;28;20133;-71
2023/10/16 08:59:50;;;;;;;0.35;0.35;;;;;;;;;;4967846;28;20062;-73
2023/10/16 09:02:21;;;;;;;0.47;0.47;;;;;;;;;;4967860;28;20042;-73
2023/10/16 09:04:49;;;;;;;0.20;0.20;;;;;;;;;;4965877;28;20078;-72
2023/10/16 09:07:17;;;;;;;0.45;0.45;;;;;;;;;;4960868;28;20059;-73
2023/10/16 09:09:48;;;;;;;0.25;0.25;;;;;;;;;;4967348;28;20043;-72
2023/10/16 09:12:28;;;;;;;3.20;1.67;;;;;;;;;;4967428;28;20134;-72
2023/10/16 09:15:05;;;;;;;0.90;0.90;;;;;;;;;;4967154;28;20488;-73
2023/10/16 09:17:36;;;;;;;0.32;0.32;;;;;;;;;;4966710;28;20042;-73
2023/10/16 09:20:13;;;;;;;0.10;0.10;;;;;;;;;;4967882;28;20463;-72
2023/10/16 09:22:45;;;;;;;0.30;0.30;;;;;;;;;;4965361;28;20130;-73
2023/10/16 09:25:15;;;;;;;0.32;0.30;;;;;;;;;;4967581;28;20050;-73
2023/10/16 09:28:00;;;;;;;0.10;0.10;;;;;;;;;;4953067;28;20059;-73
2023/10/16 09:30:28;;;;;;;0.10;0.10;;;;;;;;;;4966143;28;20406;-72
2023/10/16 09:32:56;;;;;;;0.55;0.55;;;;;;;;;;4967116;28;20042;-72
2023/10/16 09:35:32;;;;;;;0.00;0.00;;;;;;;;;;4967072;28;20061;-71
2023/10/16 09:38:17;;;;;;;0.20;0.20;;;;;;;;;;4967615;28;20639;-72
2023/10/16 09:43:40;;;;;;;0.10;0.10;;;;;;;;;;4947680;28;20436;-73
2023/10/16 09:48:54;;;;;;;1.27;1.10;;;;;;;;;;4966324;28;20136;-70
2023/10/16 09:51:21;;;;;;;0.45;0.45;;;;;;;;;;4950832;28;20440;-71
2023/10/16 09:53:52;;;;;;;0.25;0.25;;;;;;;;;;4964699;28;20058;-72
2023/10/16 09:56:23;;;;;;;0.08;0.08;;;;;;;;;;4965742;28;20556;-71
2023/10/16 09:58:52;;;;;;;0.17;0.17;;;;;;;;;;4949434;28;20452;-71
2023/10/16 10:01:29;;;;;;;0.17;0.17;;;;;;;;;;4967105;28;20053;-73
2023/10/16 10:03:57;;;;;;;0.73;0.73;;;;;;;;;;4965613;28;20063;-73
2023/10/16 10:06:34;;;;;;;0.68;0.68;;;;;;;;;;4965654;28;20051;-73
2023/10/16 10:11:43;;;;;;;0.20;0.20;;;;;;;;;;4966118;28;20082;-73
2023/10/16 10:14:39;;;;;;;0.57;0.57;;;;;;;;;;4965880;28;20055;-73
2023/10/16 10:17:19;;;;;;;0.47;0.47;;;;;;;;;;4956219;28;20059;-71
2023/10/16 10:19:56;;;;;;;0.20;0.20;;;;;;;;;;4962171;28;20057;-72
2023/10/16 10:22:27;;;;;;;0.20;0.20;;;;;;;;;;4961840;28;20412;-73
2023/10/16 10:25:22;;;;;;;0.00;0.00;;;;;;;;;;4965183;28;20137;-73
2023/10/16 10:27:50;;;;;;;0.15;0.15;;;;;;;;;;4966120;28;20576;-72
2023/10/16 10:30:25;;;;;;;0.10;0.10;;;;;;;;;;4966227;28;20047;-73
2023/10/16 10:32:55;;;;;;;0.03;0.03;;;;;;;;;;4965122;28;20057;-73
2023/10/16 10:35:30;;;;;;;0.10;0.10;;;;;;;;;;4967372;28;20058;-73
2023/10/16 10:38:07;;;;;;;0.35;0.35;;;;;;;;;;4965635;28;20050;-73
2023/10/16 10:40:35;;;;;;;0.22;0.22;;;;;;;;;;4965723;28;20057;-72
2023/10/16 10:43:03;;;;;;;0.20;0.20;;;;;;;;;;4965901;28;20397;-72
2023/10/16 10:45:34;;;;;;;0.20;0.20;;;;;;;;;;4967546;28;22000;-73
2023/10/16 10:48:11;;;;;;;0.17;0.17;;;;;;;;;;4969437;28;20303;-73
2023/10/16 10:50:39;;;;;;;0.10;0.10;;;;;;;;;;4957457;28;20113;-73
2023/10/16 10:53:13;;;;;;;0.10;0.10;;;;;;;;;;4963002;28;20095;-73
2023/10/16 10:55:55;;;;;;;0.20;0.20;;;;;;;;;;4968048;28;20057;-73
2023/10/16 10:58:31;;;;;;;3.42;0.57;;;;;;;;;;4965487;28;20445;-73
2023/10/16 11:03:51;;;;;;;0.10;0.10;;;;;;;;;;4969324;28;20511;-73
2023/10/16 11:06:20;;;;;;;0.22;0.22;;;;;;;;;;4967208;28;20047;-73
2023/10/16 11:08:48;;;;;;;0.30;0.30;;;;;;;;;;4968039;28;20050;-73
2023/10/16 11:11:16;;;;;;;0.52;0.52;;;;;;;;;;4968954;28;20043;-71
2023/10/16 11:13:46;;;;;;;3.85;0.52;;;;;;;;;;4969698;28;20039;-72
2023/10/16 11:16:18;;;;;;;0.20;0.20;;;;;;;;;;4970241;28;20152;-72
2023/10/16 11:18:58;;;;;;;0.10;0.10;;;;;;;;;;4970102;28;20081;-73
2023/10/16 11:21:26;;;;;;;0.20;0.20;;;;;;;;;;4964073;28;20046;-74
2023/10/16 11:24:00;;;;;;;0.10;0.10;;;;;;;;;;4967365;28;20516;-74
2023/10/16 11:26:27;;;;;;;0.20;0.20;;;;;;;;;;4963078;28;20386;-74
2023/10/16 11:28:56;;;;;;;0.30;0.30;;;;;;;;;;4963863;28;20081;-73
2023/10/16 11:31:25;;;;;;;0.35;0.35;;;;;;;;;;4965458;28;20047;-72
2023/10/16 11:34:06;;;;;;;6.93;1.25;;;;;;;;;;4969092;28;20062;-72
2023/10/16 11:36:34;;;;;;;0.20;0.20;;;;;;;;;;4965662;28;20908;-72
2023/10/16 11:39:11;;;;;;;1.58;1.45;;;;;;;;;;4968713;28;20070;-72
2023/10/16 11:41:38;;;;;;;0.00;0.00;;;;;;;;;;4967028;28;20429;-71
2023/10/16 11:44:13;;;;;;;0.10;0.10;;;;;;;;;;4961146;28;20055;-71
2023/10/16 11:46:46;;;;;;;0.50;0.50;;;;;;;;;;4965994;28;20459;-70
2023/10/16 11:52:08;;;;;;;0.10;0.10;;;;;;;;;;4967990;28;20055;-72
2023/10/16 11:54:40;;;;;;;0.03;0.03;;;;;;;;;;4967823;28;20042;-71
2023/10/16 11:57:13;;;;;;;0.30;0.30;;;;;;;;;;4969778;28;20055;-72
2023/10/16 11:59:41;;;;;;;0.00;0.00;;;;;;;;;;4968585;28;20051;-71
2023/10/16 12:02:18;;;;;;;0.20;0.20;;;;;;;;;;4969283;28;20058;-71
2023/10/16 12:04:46;;;;;;;0.30;0.30;;;;;;;;;;4951788;28;20057;-71
2023/10/16 12:07:14;;;;;;;1.08;0.50;;;;;;;;;;4969484;28;20050;-72
2023/10/16 12:09:47;;;;;;;0.10;0.10;;;;;;;;;;4969565;28;20125;-71
2023/10/16 12:12:22;;;;;;;0.20;0.20;;;;;;;;;;4969292;28;20051;-71
2023/10/16 12:14:50;;;;;;;0.45;0.45;;;;;;;;;;4968547;28;20169;-72
2023/10/16 12:17:21;;;;;;;0.25;0.25;;;;;;;;;;4969073;28;20152;-70
2023/10/16 12:19:52;;;;;;;1.00;0.98;;;;;;;;;;4969079;28;20125;-72
2023/10/16 12:22:23;;;;;;;0.50;0.50;;;;;;;;;;4966523;28;20114;-71
2023/10/16 12:24:51;;;;;;;0.47;0.47;;;;;;;;;;4967266;28;20097;-70
2023/10/16 12:27:18;;;;;;;0.43;0.43;;;;;;;;;;4970244;28;20516;-71
2023/10/16 12:29:46;;;;;;;0.10;0.10;;;;;;;;;;4969116;28;20047;-71
2023/10/16 12:32:14;;;;;;;0.30;0.30;;;;;;;;;;4968979;28;20393;-72
2023/10/16 12:34:42;;;;;;;0.55;0.55;;;;;;;;;;4968552;28;20133;-72
2023/10/16 12:37:11;;;;;;;0.10;0.10;;;;;;;;;;4969204;28;20050;-72
2023/10/16 12:39:48;;;;;;;0.25;0.25;;;;;;;;;;4969572;28;20055;-72
2023/10/16 12:42:16;;;;;;;0.10;0.10;;;;;;;;;;4951778;28;20054;-71
2023/10/16 12:44:43;;;;;;;0.03;0.03;;;;;;;;;;4951109;28;20113;-72
2023/10/16 12:47:13;;;;;;;0.20;0.20;;;;;;;;;;4969185;28;20058;-72
2023/10/16 12:49:58;;;;;;;0.10;0.10;;;;;;;;;;4970402;28;20051;-70
2023/10/16 12:52:29;;;;;;;0.38;0.35;;;;;;;;;;4971509;28;20063;-72
2023/10/16 12:54:57;;;;;;;0.10;0.10;;;;;;;;;;4970193;28;20043;-71
2023/10/16 12:57:24;;;;;;;0.10;0.10;;;;;;;;;;4968763;28;20062;-72
2023/10/16 12:59:56;;;;;;;0.38;0.38;;;;;;;;;;4968641;28;20050;-72
2023/10/16 13:02:26;;;;;;;0.03;0.03;;;;;;;;;;4969005;28;20054;-72
2023/10/16 13:04:55;;;;;;;0.20;0.10;;;;;;;;;;4950850;28;20145;-71
2023/10/16 13:07:26;;;;;;;1.02;0.90;;;;;;;;;;4969980;28;20043;-70
2023/10/16 13:10:26;;;;;;;0.10;0.10;;;;;;;;;;4969531;28;20053;-72
2023/10/16 13:12:53;;;;;;;0.00;0.00;;;;;;;;;;4968000;28;20049;-72
2023/10/16 13:15:29;;;;;;;0.20;0.20;;;;;;;;;;4970538;28;20607;-72
2023/10/16 13:17:57;;;;;;;0.22;0.20;;;;;;;;;;4968575;28;20647;-72
2023/10/16 13:20:28;;;;;;;0.10;0.10;;;;;;;;;;4969939;28;20050;-72
2023/10/16 13:22:57;;;;;;;0.00;0.00;;;;;;;;;;4969258;28;20050;-71
2023/10/16 13:25:31;;;;;;;0.20;0.20;;;;;;;;;;4967927;28;20072;-72
2023/10/16 13:27:59;;;;;;;0.10;0.10;;;;;;;;;;4967864;28;20065;-72
2023/10/16 13:30:31;;;;;;;0.00;0.00;;;;;;;;;;4969445;28;20043;-72
2023/10/16 13:33:06;;;;;;;0.10;0.10;;;;;;;;;;4970520;28;20054;-72
2023/10/16 13:35:38;;;;;;;0.22;0.22;;;;;;;;;;4968971;28;20051;-72
2023/10/16 13:38:07;;;;;;;0.20;0.20;;;;;;;;;;4967947;28;20679;-72
2023/10/16 13:40:35;;;;;;;0.10;0.10;;;;;;;;;;4968968;28;20062;-72
2023/10/16 13:43:03;;;;;;;0.20;0.20;;;;;;;;;;4967357;28;20360;-72
2023/10/16 13:45:37;;;;;;;0.70;0.30;;;;;;;;;;4967576;28;20109;-72
2023/10/16 13:48:08;;;;;;;0.10;0.10;;;;;;;;;;4952025;28;20126;-72
2023/10/16 13:50:36;;;;;;;0.10;0.10;;;;;;;;;;4966896;28;20586;-72
2023/10/16 13:53:08;;;;;;;0.20;0.20;;;;;;;;;;4968712;28;20054;-72
2023/10/16 13:55:36;;;;;;;0.13;0.13;;;;;;;;;;4967232;28;20051;-72
2023/10/16 13:58:05;;;;;;;0.75;0.75;;;;;;;;;;4969350;28;20055;-72
2023/10/16 14:00:36;;;;;;;0.25;0.25;;;;;;;;;;4967209;28;20050;-72
2023/10/16 14:03:17;;;;;;;0.43;0.43;;;;;;;;;;4966874;28;20309;-72
2023/10/16 14:05:50;;;;;;;0.30;0.30;;;;;;;;;;4966705;28;20178;-73
2023/10/16 14:08:26;;;;;;;0.30;0.30;;;;;;;;;;4967790;28;20428;-72
2023/10/16 14:10:57;;;;;;;0.25;0.15;;;;;;;;;;4968688;28;20050;-72
2023/10/16 14:13:28;;;;;;;1.42;1.33;;;;;;;;;;4968053;28;20043;-72
2023/10/16 14:16:11;;;;;;;0.08;0.08;;;;;;;;;;4968292;28;20055;-72
2023/10/16 14:18:48;;;;;;;0.00;0.00;;;;;;;;;;4968396;28;20054;-72
2023/10/16 14:21:16;;;;;;;0.20;0.20;;;;;;;;;;4967551;28;20472;-72
2023/10/16 14:23:44;;;;;;;0.10;0.10;;;;;;;;;;4956231;28;20077;-72
2023/10/16 14:26:20;;;;;;;0.10;0.10;;;;;;;;;;4959658;28;20390;-71
2023/10/16 14:28:52;;;;;;;0.10;0.10;;;;;;;;;;4946424;28;20073;-71
2023/10/16 14:31:21;;;;;;;0.10;0.10;;;;;;;;;;4966255;28;20137;-73
2023/10/16 14:33:49;;;;;;;0.10;0.10;;;;;;;;;;4967732;28;20059;-75
2023/10/16 14:36:24;;;;;;;0.10;0.10;;;;;;;;;;4967226;28;20416;-74
2023/10/16 14:38:54;;;;;;;0.10;0.10;;;;;;;;;;4962602;28;20065;-76
2023/10/16 14:41:23;;;;;;;0.20;0.20;;;;;;;;;;4964754;28;20074;-75
2023/10/16 14:43:51;;;;;;;0.40;0.35;;;;;;;;;;4963696;28;20133;-75
2023/10/16 14:46:22;;;;;;;0.22;0.22;;;;;;;;;;4961927;28;20051;-74
2023/10/16 14:48:53;;;;;;;0.13;0.13;;;;;;;;;;4963616;28;20110;-71
2023/10/16 14:51:22;;;;;;;0.10;0.10;;;;;;;;;;4967128;28;20057;-73
2023/10/16 14:53:49;;;;;;;0.17;0.17;;;;;;;;;;4964789;28;20051;-73
2023/10/16 14:56:20;;;;;;;0.22;0.22;;;;;;;;;;4962748;28;20047;-71
2023/10/16 14:58:49;;;;;;;0.20;0.20;;;;;;;;;;4965585;28;20094;-71
2023/10/16 15:01:36;;;;;;;0.30;0.30;;;;;;;;;;4962295;28;20130;-71
2023/10/16 15:04:04;;;;;;;0.15;0.15;;;;;;;;;;4963822;28;20581;-71
2023/10/16 15:06:32;;;;;;;0.30;0.30;;;;;;;;;;4955793;28;20084;-71
2023/10/16 15:08:59;;;;;;;0.10;0.10;;;;;;;;;;4946810;28;20046;-71
2023/10/16 15:11:28;;;;;;;0.10;0.10;;;;;;;;;;4957363;28;20497;-71
2023/10/16 15:13:56;;;;;;;0.03;0.03;;;;;;;;;;4959877;28;20047;-71
2023/10/16 15:16:26;;;;;;;0.17;0.17;;;;;;;;;;4965344;28;20050;-71
2023/10/16 15:18:56;;;;;;;0.20;0.20;;;;;;;;;;4957819;28;20129;-71
2023/10/16 15:21:23;;;;;;;0.28;0.28;;;;;;;;;;4965935;28;20081;-71
2023/10/16 15:23:51;;;;;;;0.30;0.30;;;;;;;;;;4966043;28;20050;-71
2023/10/16 15:26:18;;;;;;;0.43;0.43;;;;;;;;;;4964459;28;20282;-71
2023/10/16 15:28:46;;;;;;;0.35;0.35;;;;;;;;;;4952636;28;20047;-71
2023/10/16 15:31:15;;;;;;;0.28;0.28;;;;;;;;;;4967291;28;20094;-71
2023/10/16 15:33:44;;;;;;;0.68;0.68;;;;;;;;;;4967521;28;20500;-71
2023/10/16 15:36:12;;;;;;;0.20;0.20;;;;;;;;;;4967011;28;20055;-71
2023/10/16 15:38:41;;;;;;;0.43;0.43;;;;;;;;;;4970146;28;20054;-72
2023/10/16 15:41:11;;;;;;;0.40;0.40;;;;;;;;;;4969586;28;20058;-72
2023/10/16 15:43:42;;;;;;;0.88;0.70;;;;;;;;;;4968077;28;20039;-72
2023/10/16 15:46:31;;;;;;;0.73;0.73;;;;;;;;;;4967665;28;20053;-72
2023/10/16 15:48:59;;;;;;;0.70;0.70;;;;;;;;;;4968248;28;20062;-73
2023/10/16 15:51:30;;;;;;;0.20;0.20;;;;;;;;;;4964395;28;20039;-73
2023/10/16 15:53:58;;;;;;;0.55;0.55;;;;;;;;;;4967171;28;20850;-74
2023/10/16 15:56:26;;;;;;;1.77;1.10;;;;;;;;;;4967773;28;20057;-74
2023/10/16 15:58:55;;;;;;;0.63;0.45;;;;;;;;;;4967734;28;20062;-71
2023/10/16 16:01:48;;;;;;;0.32;0.20;;;;;;;;;;4963343;28;20082;-71
2023/10/16 16:04:18;;;;;;;0.10;0.10;;;;;;;;;;4966504;28;20094;-71
2023/10/16 16:06:46;;;;;;;0.60;0.60;;;;;;;;;;4967022;28;20421;-74
2023/10/16 16:09:14;;;;;;;0.57;0.57;;;;;;;;;;4960925;28;20047;-71
2023/10/16 16:11:44;;;;;;;0.35;0.35;;;;;;;;;;4954521;28;20050;-71
2023/10/16 16:14:15;;;;;;;0.35;0.35;;;;;;;;;;4952817;28;20055;-72
2023/10/16 16:16:51;;;;;;;0.65;0.65;;;;;;;;;;4961858;28;20465;-75
2023/10/16 16:19:19;;;;;;;0.70;0.70;;;;;;;;;;4962535;28;20050;-75
2023/10/16 16:21:47;;;;;;;0.28;0.28;;;;;;;;;;4961906;28;20604;-73
2023/10/16 16:24:14;;;;;;;0.35;0.35;;;;;;;;;;4957651;28;20046;-73
2023/10/16 16:26:43;;;;;;;1.40;1.40;;;;;;;;;;4956325;28;20039;-72
2023/10/16 16:29:12;;;;;;;2.35;0.77;;;;;;;;;;4959591;28;20043;-72
2023/10/16 16:31:39;;;;;;;1.23;1.13;;;;;;;;;;4964302;28;20047;-72
2023/10/16 16:34:07;;;;;;;0.95;0.75;;;;;;;;;;4959941;28;20130;-73
2023/10/16 16:36:35;;;;;;;0.73;0.73;;;;;;;;;;4963669;28;20500;-73
2023/10/16 16:39:05;;;;;;;0.43;0.43;;;;;;;;;;4965385;28;20421;-73
2023/10/16 16:41:33;;;;;;;0.65;0.65;;;;;;;;;;4964159;28;20057;-72
2023/10/16 16:44:02;;;;;;;0.57;0.57;;;;;;;;;;4961077;28;20059;-73
2023/10/16 16:46:30;;;;;;;0.70;0.70;;;;;;;;;;4964548;28;20650;-72
2023/10/16 16:49:01;;;;;;;1.13;1.13;;;;;;;;;;4966767;28;20113;-71
2023/10/16 16:51:29;;;;;;;0.73;0.73;;;;;;;;;;4959006;28;20091;-72
2023/10/16 16:53:57;;;;;;;2.45;2.25;;;;;;;;;;4961631;28;20054;-72
2023/10/16 16:56:25;;;;;;;0.57;0.57;;;;;;;;;;4963977;28;20524;-73
2023/10/16 16:58:53;;;;;;;1.25;0.90;;;;;;;;;;4963974;28;20110;-73
2023/10/16 17:01:21;;;;;;;2.45;2.30;;;;;;;;;;4960142;28;20061;-72
2023/10/16 17:03:49;;;;;;;1.23;0.68;;;;;;;;;;4962068;28;20145;-73
2023/10/16 17:06:17;;;;;;;1.05;1.05;;;;;;;;;;4965579;28;20162;-73
2023/10/16 17:08:44;;;;;;;1.48;1.02;;;;;;;;;;4965374;28;20047;-73
2023/10/16 17:11:13;;;;;;;0.20;0.20;;;;;;;;;;4960653;28;20152;-73
2023/10/16 17:13:41;;;;;;;0.85;0.85;;;;;;;;;;4960927;28;20043;-73
2023/10/16 17:16:08;;;;;;;0.80;0.80;;;;;;;;;;4964164;28;20051;-73
2023/10/16 17:18:36;;;;;;;0.65;0.65;;;;;;;;;;4962452;28;20085;-73
2023/10/16 17:21:05;;;;;;;0.82;0.82;;;;;;;;;;4946825;28;20046;-74
2023/10/16 17:23:32;;;;;;;0.20;0.20;;;;;;;;;;4959742;28;20053;-74